createdAt,value
2018-09-25T00:00:13.445Z,53.85
2018-09-25T00:01:13.477Z,53.85
2018-09-25T00:02:13.578Z,53.66
2018-09-25T00:03:13.543Z,53.47
2018-09-25T00:04:13.626Z,53.85
2018-09-25T00:05:13.668Z,53.66
2018-09-25T00:06:13.987Z,53.56
2018-09-25T00:07:13.721Z,53.66
2018-09-25T00:08:13.758Z,53.66
2018-09-25T00:09:13.717Z,53.47
2018-09-25T00:10:14.209Z,54.33
2018-09-25T00:11:13.842Z,54.14
2018-09-25T00:12:13.873Z,54.14
2018-09-25T00:13:14.142Z,54.14
2018-09-25T00:14:13.871Z,54.14
2018-09-25T00:15:13.923Z,54.14
2018-09-25T00:16:13.979Z,54.24
2018-09-25T00:17:14.016Z,53.85
2018-09-25T00:18:14.009Z,54.24
2018-09-25T00:19:14.103Z,53.85
2018-09-25T00:20:15.411Z,53.85
2018-09-25T00:21:14.138Z,53.85
2018-09-25T00:22:14.166Z,54.24
2018-09-25T00:23:14.232Z,54.14
2018-09-25T00:24:14.176Z,53.95
2018-09-25T00:25:14.260Z,54.05
2018-09-25T00:26:14.300Z,54.05
2018-09-25T00:27:14.563Z,54.14
2018-09-25T00:28:14.354Z,54.14
2018-09-25T00:30:14.406Z,54.05
2018-09-25T00:31:14.436Z,54.14
2018-09-25T00:32:14.472Z,54.05
2018-09-25T00:33:14.447Z,53.85
2018-09-25T00:34:14.780Z,53.95
2018-09-25T00:35:14.559Z,54.05
2018-09-25T00:36:14.543Z,54.14
2018-09-25T00:37:14.565Z,53.95
2018-09-25T00:38:14.647Z,54.05
2018-09-25T00:39:14.677Z,54.24
2018-09-25T00:40:14.714Z,54.05
2018-09-25T00:41:14.987Z,54.24
2018-09-25T00:42:14.721Z,54.05
2018-09-25T00:43:14.822Z,54.05
2018-09-25T00:44:14.784Z,54.05
2018-09-25T00:45:14.857Z,54.05
2018-09-25T00:46:14.844Z,54.14
2018-09-25T00:47:14.928Z,54.14
2018-09-25T00:48:15.198Z,53.95
2018-09-25T00:50:15.013Z,53.85
2018-09-25T00:51:15.038Z,53.66
2018-09-25T00:52:15.177Z,53.95
2018-09-25T00:53:15.100Z,54.14
2018-09-25T00:54:15.116Z,53.95
2018-09-25T00:55:15.425Z,53.85
2018-09-25T00:57:15.222Z,54.05
2018-09-25T00:58:15.252Z,54.05
2018-09-25T00:59:15.293Z,53.95
2018-09-25T01:00:15.310Z,53.85
2018-09-25T01:01:15.645Z,53.95
2018-09-25T01:02:15.377Z,53.85
2018-09-25T01:03:15.402Z,53.75
2018-09-25T01:04:15.438Z,54.21
2018-09-25T01:05:15.465Z,54.05
2018-09-25T01:06:15.442Z,54.14
2018-09-25T01:07:15.773Z,54.24
2018-09-25T01:08:15.554Z,54.11
2018-09-25T01:09:15.533Z,54.24
2018-09-25T01:10:15.567Z,54.21
2018-09-25T01:11:15.604Z,53.92
2018-09-25T01:12:15.632Z,54.21
2018-09-25T01:13:16.105Z,53.92
2018-09-25T01:14:15.690Z,53.92
2018-09-25T01:15:15.765Z,53.92
2018-09-25T01:16:15.746Z,53.92
2018-09-25T01:17:15.776Z,54.50
2018-09-25T01:18:15.855Z,54.69
2018-09-25T01:19:15.977Z,54.31
2018-09-25T01:20:16.171Z,54.21
2018-09-25T01:21:15.903Z,54.69
2018-09-25T01:22:15.926Z,54.40
2018-09-25T01:23:16.012Z,54.50
2018-09-25T01:24:15.994Z,54.50
2018-09-25T01:25:16.018Z,54.40
2018-09-25T01:26:16.102Z,54.60
2018-09-25T01:27:16.437Z,54.31
2018-09-25T01:28:16.164Z,54.50
2018-09-25T01:29:16.194Z,54.60
2018-09-25T01:30:16.218Z,54.31
2018-09-25T01:31:16.253Z,54.40
2018-09-25T01:32:16.279Z,54.21
2018-09-25T01:33:16.265Z,54.31
2018-09-25T01:34:16.591Z,54.31
2018-09-25T01:35:16.369Z,54.40
2018-09-25T01:36:16.353Z,54.31
2018-09-25T01:37:16.386Z,54.21
2018-09-25T01:38:16.466Z,52.76
2018-09-25T01:39:16.497Z,51.41
2018-09-25T01:40:16.518Z,50.64
2018-09-25T01:41:16.805Z,52.25
2018-09-25T01:42:16.588Z,51.39
2018-09-25T01:43:16.616Z,52.06
2018-09-25T01:44:16.645Z,52.25
2018-09-25T01:45:16.677Z,52.16
2018-09-25T01:46:16.708Z,51.97
2018-09-25T01:47:16.733Z,51.46
2018-09-25T01:48:17.017Z,51.56
2018-09-25T01:49:16.797Z,52.04
2018-09-25T01:50:16.772Z,51.56
2018-09-25T01:51:16.853Z,51.65
2018-09-25T01:52:16.887Z,51.36
2018-09-25T01:53:16.917Z,51.94
2018-09-25T01:54:16.948Z,52.42
2018-09-25T01:55:17.224Z,52.13
2018-09-25T01:56:16.952Z,51.46
2018-09-25T01:57:17.033Z,51.24
2018-09-25T01:58:17.018Z,51.26
2018-09-25T01:59:17.092Z,51.46
2018-09-25T02:00:17.075Z,51.62
2018-09-25T02:01:17.155Z,51.34
2018-09-25T02:02:17.433Z,51.34
2018-09-25T02:03:17.173Z,51.43
2018-09-25T02:04:17.245Z,51.24
2018-09-25T02:05:17.224Z,50.95
2018-09-25T02:06:17.312Z,51.05
2018-09-25T02:07:17.336Z,51.53
2018-09-25T02:08:17.315Z,51.05
2018-09-25T02:09:17.654Z,51.53
2018-09-25T02:10:17.422Z,51.05
2018-09-25T02:11:17.469Z,51.05
2018-09-25T02:12:17.432Z,51.53
2018-09-25T02:13:17.513Z,51.43
2018-09-25T02:14:17.544Z,52.20
2018-09-25T02:15:17.589Z,52.18
2018-09-25T02:16:17.853Z,51.60
2018-09-25T02:17:17.639Z,51.31
2018-09-25T02:18:17.628Z,51.21
2018-09-25T02:19:17.692Z,51.60
2018-09-25T02:20:17.724Z,50.93
2018-09-25T02:21:17.764Z,51.50
2018-09-25T02:22:17.797Z,51.50
2018-09-25T02:23:18.066Z,51.41
2018-09-25T02:24:17.847Z,51.21
2018-09-25T02:25:18.023Z,51.31
2018-09-25T02:26:17.863Z,51.31
2018-09-25T02:27:17.932Z,51.50
2018-09-25T02:28:17.909Z,51.41
2018-09-25T02:29:17.948Z,51.41
2018-09-25T02:30:18.272Z,51.41
2018-09-25T02:31:18.051Z,50.93
2018-09-25T02:32:18.034Z,51.50
2018-09-25T02:33:18.115Z,51.21
2018-09-25T02:34:18.088Z,51.02
2018-09-25T02:35:18.167Z,50.93
2018-09-25T02:36:18.197Z,51.31
2018-09-25T02:37:18.479Z,50.93
2018-09-25T02:38:18.214Z,50.93
2018-09-25T02:39:18.290Z,51.02
2018-09-25T02:40:18.272Z,50.83
2018-09-25T02:41:18.345Z,50.93
2018-09-25T02:42:18.375Z,50.93
2018-09-25T02:43:18.405Z,50.93
2018-09-25T02:44:18.692Z,51.21
2018-09-25T02:45:18.462Z,51.12
2018-09-25T02:46:18.500Z,51.12
2018-09-25T02:47:18.529Z,51.02
2018-09-25T02:48:18.509Z,51.02
2018-09-25T02:49:18.587Z,51.21
2018-09-25T02:50:18.867Z,51.21
2018-09-25T02:51:18.650Z,51.02
2018-09-25T02:52:18.676Z,51.12
2018-09-25T02:53:18.653Z,51.21
2018-09-25T02:54:18.728Z,50.83
2018-09-25T02:55:18.764Z,51.21
2018-09-25T02:56:19.091Z,51.12
2018-09-25T02:57:18.824Z,51.12
2018-09-25T02:58:18.801Z,51.12
2018-09-25T02:59:18.881Z,51.12
2018-09-25T03:00:18.858Z,51.50
2018-09-25T03:01:18.947Z,51.02
2018-09-25T03:02:19.215Z,51.12
2018-09-25T03:03:19.004Z,51.31
2018-09-25T03:04:18.983Z,51.48
2018-09-25T03:05:19.061Z,51.29
2018-09-25T03:06:19.031Z,51.09
2018-09-25T03:07:19.116Z,51.41
2018-09-25T03:08:19.090Z,51.19
2018-09-25T03:11:19.480Z,51.12
2018-09-25T03:12:19.257Z,51.48
2018-09-25T03:13:19.287Z,50.81
2018-09-25T03:14:19.269Z,50.71
2018-09-25T03:15:19.346Z,51.38
2018-09-25T03:16:19.376Z,51.29
2018-09-25T03:17:19.660Z,51.38
2018-09-25T03:18:19.385Z,51.09
2018-09-25T03:19:19.474Z,51.29
2018-09-25T03:20:19.443Z,51.38
2018-09-25T03:21:19.474Z,51.38
2018-09-25T03:22:19.556Z,51.29
2018-09-25T03:23:19.834Z,51.38
2018-09-25T03:24:19.566Z,50.90
2018-09-25T03:25:19.637Z,51.19
2018-09-25T03:26:19.673Z,51.29
2018-09-25T03:27:19.701Z,51.19
2018-09-25T03:28:19.677Z,50.99
2018-09-25T03:29:19.708Z,51.19
2018-09-25T03:30:20.038Z,50.90
2018-09-25T03:31:19.820Z,51.19
2018-09-25T03:32:19.849Z,51.19
2018-09-25T03:33:19.829Z,51.38
2018-09-25T03:34:19.906Z,51.45
2018-09-25T03:35:20.032Z,51.57
2018-09-25T03:36:19.958Z,51.38
2018-09-25T03:37:20.239Z,50.97
2018-09-25T03:38:19.980Z,51.19
2018-09-25T03:39:20.052Z,51.35
2018-09-25T03:40:20.025Z,51.35
2018-09-25T03:41:20.104Z,51.17
2018-09-25T03:42:20.087Z,51.48
2018-09-25T03:43:20.168Z,51.07
2018-09-25T03:44:20.501Z,51.38
2018-09-25T03:45:20.169Z,51.17
2018-09-25T03:46:20.203Z,51.38
2018-09-25T03:47:20.381Z,51.55
2018-09-25T03:48:20.309Z,51.17
2018-09-25T03:49:20.286Z,51.17
2018-09-25T03:50:20.320Z,51.45
2018-09-25T03:51:20.647Z,51.45
2018-09-25T03:52:20.430Z,51.45
2018-09-25T03:53:20.401Z,51.35
2018-09-25T03:54:20.433Z,51.45
2018-09-25T03:55:20.468Z,51.45
2018-09-25T03:56:20.493Z,51.26
2018-09-25T03:57:20.572Z,51.35
2018-09-25T03:58:20.905Z,51.35
2018-09-25T03:59:20.630Z,51.64
2018-09-25T04:00:20.612Z,51.55
2018-09-25T04:01:20.644Z,51.55
2018-09-25T04:02:20.663Z,51.64
2018-09-25T04:03:20.697Z,51.35
2018-09-25T04:04:20.777Z,51.26
2018-09-25T04:05:21.059Z,51.17
2018-09-25T04:06:20.926Z,51.26
2018-09-25T04:07:20.869Z,50.97
2018-09-25T04:08:20.857Z,51.07
2018-09-25T04:09:20.870Z,51.35
2018-09-25T04:10:20.899Z,51.07
2018-09-25T04:11:20.974Z,51.35
2018-09-25T04:12:21.253Z,51.45
2018-09-25T04:13:21.080Z,51.45
2018-09-25T04:14:21.015Z,51.55
2018-09-25T04:15:21.093Z,51.26
2018-09-25T04:16:21.117Z,51.26
2018-09-25T04:17:21.103Z,51.35
2018-09-25T04:18:21.176Z,51.55
2018-09-25T04:19:21.464Z,51.45
2018-09-25T04:20:21.183Z,51.26
2018-09-25T04:21:21.361Z,51.93
2018-09-25T04:22:21.240Z,51.35
2018-09-25T04:23:21.319Z,51.17
2018-09-25T04:24:21.297Z,51.45
2018-09-25T04:25:21.330Z,51.07
2018-09-25T04:26:21.406Z,51.35
2018-09-25T04:27:21.441Z,51.35
2018-09-25T04:28:21.466Z,51.55
2018-09-25T04:29:21.445Z,51.55
2018-09-25T04:30:21.470Z,51.55
2018-09-25T04:31:21.559Z,51.45
2018-09-25T04:32:21.883Z,51.35
2018-09-25T04:33:21.568Z,51.26
2018-09-25T04:34:21.601Z,51.55
2018-09-25T04:35:21.665Z,51.84
2018-09-25T04:36:21.657Z,51.35
2018-09-25T04:37:21.740Z,51.43
2018-09-25T04:38:22.007Z,51.17
2018-09-25T04:39:21.736Z,51.14
2018-09-25T04:40:21.806Z,51.17
2018-09-25T04:41:21.840Z,51.35
2018-09-25T04:42:21.819Z,51.33
2018-09-25T04:43:21.894Z,51.26
2018-09-25T04:44:22.229Z,51.43
2018-09-25T04:45:21.900Z,51.14
2018-09-25T04:46:21.936Z,51.23
2018-09-25T04:47:22.008Z,51.43
2018-09-25T04:48:22.043Z,51.81
2018-09-25T04:49:22.072Z,51.23
2018-09-25T04:50:22.050Z,51.53
2018-09-25T04:51:22.377Z,51.53
2018-09-25T04:52:22.159Z,52.10
2018-09-25T04:53:22.139Z,51.91
2018-09-25T04:54:22.169Z,51.53
2018-09-25T04:55:22.239Z,51.53
2018-09-25T04:56:22.322Z,51.72
2018-09-25T04:57:22.297Z,51.72
2018-09-25T04:58:22.578Z,51.81
2018-09-25T04:59:22.311Z,51.62
2018-09-25T05:00:22.335Z,51.14
2018-09-25T05:01:22.413Z,51.43
2018-09-25T05:02:22.445Z,51.33
2018-09-25T05:03:22.474Z,51.62
2018-09-25T05:04:22.495Z,51.81
2018-09-25T05:05:22.777Z,51.53
2018-09-25T05:06:22.504Z,52.20
2018-09-25T05:07:22.590Z,51.81
2018-09-25T05:08:22.608Z,51.81
2018-09-25T05:09:22.595Z,52.00
2018-09-25T05:10:22.613Z,51.91
2018-09-25T05:11:22.700Z,52.00
2018-09-25T05:12:23.027Z,51.91
2018-09-25T05:13:22.751Z,51.91
2018-09-25T05:14:22.786Z,52.00
2018-09-25T05:15:22.815Z,51.91
2018-09-25T05:16:22.790Z,51.81
2018-09-25T05:17:22.866Z,51.81
2018-09-25T05:18:22.899Z,51.91
2018-09-25T05:19:22.934Z,52.00
2018-09-25T05:20:22.951Z,51.98
2018-09-25T05:21:22.981Z,51.98
2018-09-25T05:22:22.964Z,51.98
2018-09-25T05:23:23.098Z,52.00
2018-09-25T05:24:23.020Z,52.08
2018-09-25T05:25:23.346Z,51.98
2018-09-25T05:26:23.074Z,52.08
2018-09-25T05:27:23.105Z,51.98
2018-09-25T05:28:23.176Z,51.98
2018-09-25T05:29:23.156Z,51.98
2018-09-25T05:30:23.240Z,51.98
2018-09-25T05:31:23.271Z,52.10
2018-09-25T05:32:23.300Z,52.87
2018-09-25T05:33:23.275Z,53.45
2018-09-25T05:34:23.301Z,53.45
2018-09-25T05:35:23.382Z,53.64
2018-09-25T05:36:23.359Z,53.74
2018-09-25T05:37:23.432Z,53.83
2018-09-25T05:38:23.721Z,53.74
2018-09-25T05:39:23.498Z,54.12
2018-09-25T05:40:23.526Z,54.22
2018-09-25T05:41:23.496Z,54.50
2018-09-25T05:42:23.528Z,54.31
2018-09-25T05:43:23.604Z,54.22
2018-09-25T05:44:23.589Z,54.02
2018-09-25T05:45:23.661Z,54.22
2018-09-25T05:46:23.640Z,53.92
2018-09-25T05:47:23.853Z,53.92
2018-09-25T05:48:23.962Z,54.31
2018-09-25T05:49:24.176Z,54.22
2018-09-25T05:50:24.110Z,54.22
2018-09-25T05:51:23.931Z,54.12
2018-09-25T05:52:24.396Z,54.34
2018-09-25T05:53:23.976Z,54.34
2018-09-25T05:54:24.030Z,54.31
2018-09-25T05:56:24.518Z,54.53
2018-09-25T05:57:24.313Z,54.53
2018-09-25T05:58:24.000Z,54.53
2018-09-25T05:59:24.061Z,54.43
2018-09-25T06:00:24.038Z,54.34
2018-09-25T06:01:24.067Z,54.14
2018-09-25T06:02:24.150Z,54.14
2018-09-25T06:03:24.448Z,53.86
2018-09-25T06:04:24.152Z,53.76
2018-09-25T06:05:24.181Z,54.05
2018-09-25T06:06:24.206Z,53.66
2018-09-25T06:07:24.293Z,53.66
2018-09-25T06:08:24.315Z,53.96
2018-09-25T06:09:24.350Z,53.86
2018-09-25T06:10:24.627Z,53.76
2018-09-25T06:11:24.411Z,53.76
2018-09-25T06:12:24.399Z,53.96
2018-09-25T06:13:24.459Z,53.76
2018-09-25T06:14:24.459Z,53.96
2018-09-25T06:15:24.470Z,53.86
2018-09-25T06:16:24.519Z,53.86
2018-09-25T06:17:24.835Z,53.86
2018-09-25T06:18:24.605Z,53.66
2018-09-25T06:19:24.635Z,53.76
2018-09-25T06:20:24.623Z,53.96
2018-09-25T06:21:24.687Z,53.47
2018-09-25T06:22:24.735Z,53.86
2018-09-25T06:23:24.743Z,53.47
2018-09-25T06:24:24.771Z,53.59
2018-09-25T06:25:24.758Z,53.57
2018-09-25T06:26:24.781Z,53.57
2018-09-25T06:27:24.859Z,53.59
2018-09-25T06:28:24.886Z,53.57
2018-09-25T06:29:24.874Z,53.69
2018-09-25T06:30:25.199Z,53.59
2018-09-25T06:31:24.977Z,53.59
2018-09-25T06:32:25.005Z,53.69
2018-09-25T06:33:25.035Z,53.50
2018-09-25T06:34:25.112Z,53.59
2018-09-25T06:35:25.095Z,53.78
2018-09-25T06:36:25.118Z,53.59
2018-09-25T06:37:25.190Z,53.78
2018-09-25T06:38:25.125Z,53.78
2018-09-25T06:39:25.211Z,53.69
2018-09-25T06:40:25.228Z,53.78
2018-09-25T06:41:25.215Z,53.50
2018-09-25T06:42:25.239Z,53.50
2018-09-25T06:43:25.622Z,53.40
2018-09-25T06:44:25.300Z,53.02
2018-09-25T06:45:25.372Z,53.40
2018-09-25T06:47:25.489Z,53.21
2018-09-25T06:48:25.418Z,53.21
2018-09-25T06:49:25.444Z,53.31
2018-09-25T06:50:25.521Z,53.21
2018-09-25T06:51:25.542Z,53.21
2018-09-25T06:52:25.528Z,52.83
2018-09-25T06:53:25.554Z,52.92
2018-09-25T06:54:25.589Z,52.92
2018-09-25T06:55:25.668Z,53.21
2018-09-25T06:56:25.694Z,53.05
2018-09-25T06:57:25.673Z,52.66
2018-09-25T06:58:25.700Z,53.02
2018-09-25T06:59:25.783Z,52.95
2018-09-25T07:00:25.808Z,53.02
2018-09-25T07:01:26.149Z,52.95
2018-09-25T07:02:25.862Z,52.95
2018-09-25T07:03:25.896Z,53.14
2018-09-25T07:04:25.931Z,52.95
2018-09-25T07:05:25.954Z,53.14
2018-09-25T07:06:25.989Z,53.23
2018-09-25T07:07:26.018Z,53.14
2018-09-25T07:08:26.059Z,53.05
2018-09-25T07:09:26.026Z,53.33
2018-09-25T07:10:26.306Z,52.95
2018-09-25T07:11:26.129Z,52.75
2018-09-25T07:12:26.117Z,53.23
2018-09-25T07:13:26.136Z,53.14
2018-09-25T07:14:26.527Z,53.05
2018-09-25T07:15:26.244Z,53.05
2018-09-25T07:16:26.281Z,52.66
2018-09-25T07:17:26.293Z,52.75
2018-09-25T07:18:26.330Z,52.66
2018-09-25T07:19:26.360Z,52.56
2018-09-25T07:20:26.394Z,52.95
2018-09-25T07:21:26.424Z,52.66
2018-09-25T07:22:26.398Z,52.37
2018-09-25T07:23:26.479Z,52.95
2018-09-25T07:24:26.532Z,53.07
2018-09-25T07:25:26.485Z,52.56
2018-09-25T07:26:26.516Z,52.66
2018-09-25T07:27:26.845Z,52.85
2018-09-25T07:28:26.575Z,52.66
2018-09-25T07:29:26.599Z,52.66
2018-09-25T07:30:26.634Z,52.59
2018-09-25T07:31:26.724Z,52.59
2018-09-25T07:32:26.696Z,52.69
2018-09-25T07:33:27.017Z,52.87
2018-09-25T07:34:26.745Z,52.78
2018-09-25T07:35:26.826Z,52.49
2018-09-25T07:36:26.826Z,52.69
2018-09-25T07:37:26.898Z,52.30
2018-09-25T07:38:26.860Z,52.40
2018-09-25T07:39:27.242Z,52.59
2018-09-25T07:40:26.923Z,52.40
2018-09-25T07:41:26.960Z,52.11
2018-09-25T07:42:27.026Z,52.20
2018-09-25T07:43:27.060Z,52.11
2018-09-25T07:44:27.040Z,52.11
2018-09-25T07:45:27.369Z,52.11
2018-09-25T07:46:27.098Z,52.20
2018-09-25T07:47:27.175Z,52.20
2018-09-25T07:48:27.205Z,52.11
2018-09-25T07:49:27.193Z,52.20
2018-09-25T07:50:27.268Z,52.20
2018-09-25T07:51:27.295Z,51.92
2018-09-25T07:52:27.570Z,52.30
2018-09-25T07:53:27.353Z,52.30
2018-09-25T07:54:27.386Z,52.49
2018-09-25T07:55:27.422Z,52.49
2018-09-25T07:56:27.391Z,52.59
2018-09-25T07:57:27.467Z,51.82
2018-09-25T07:58:27.499Z,51.72
2018-09-25T07:59:27.886Z,52.20
2018-09-25T08:00:27.559Z,52.20
2018-09-25T08:01:27.541Z,52.11
2018-09-25T08:02:27.567Z,52.20
2018-09-25T08:03:27.657Z,52.11
2018-09-25T08:04:27.672Z,52.20
2018-09-25T08:05:27.651Z,52.11
2018-09-25T08:06:27.986Z,52.01
2018-09-25T08:07:27.766Z,52.01
2018-09-25T08:08:27.749Z,52.01
2018-09-25T08:09:27.819Z,51.92
2018-09-25T08:10:27.805Z,52.01
2018-09-25T08:11:27.888Z,51.92
2018-09-25T08:12:27.861Z,52.20
2018-09-25T08:13:27.951Z,52.11
2018-09-25T08:14:27.968Z,51.84
2018-09-25T08:15:28.068Z,52.11
2018-09-25T08:16:27.981Z,51.94
2018-09-25T08:17:28.011Z,52.30
2018-09-25T08:18:28.041Z,52.04
2018-09-25T08:19:28.380Z,52.11
2018-09-25T08:20:28.148Z,51.94
2018-09-25T08:21:28.124Z,52.13
2018-09-25T08:22:28.157Z,52.04
2018-09-25T08:23:28.237Z,51.65
2018-09-25T08:24:28.266Z,51.94
2018-09-25T08:25:28.244Z,51.56
2018-09-25T08:26:28.977Z,51.56
2018-09-25T08:27:28.360Z,51.26
2018-09-25T08:28:28.336Z,51.56
2018-09-25T08:29:28.368Z,51.46
2018-09-25T08:30:28.450Z,51.56
2018-09-25T08:31:28.475Z,51.26
2018-09-25T08:32:28.458Z,51.46
2018-09-25T08:33:28.793Z,51.46
2018-09-25T08:34:28.509Z,51.56
2018-09-25T08:35:28.594Z,51.56
2018-09-25T08:36:28.622Z,51.56
2018-09-25T08:37:28.966Z,51.56
2018-09-25T08:38:28.697Z,51.46
2018-09-25T08:39:28.932Z,51.56
2018-09-25T08:40:28.994Z,51.46
2018-09-25T08:41:28.829Z,51.26
2018-09-25T08:42:28.750Z,51.26
2018-09-25T08:43:28.825Z,51.26
2018-09-25T08:44:28.819Z,51.26
2018-09-25T08:45:28.835Z,51.26
2018-09-25T08:46:28.928Z,51.26
2018-09-25T08:47:28.952Z,51.17
2018-09-25T08:48:28.978Z,51.26
2018-09-25T08:49:28.957Z,51.26
2018-09-25T08:50:29.040Z,51.26
2018-09-25T08:51:29.022Z,51.36
2018-09-25T08:52:29.093Z,51.26
2018-09-25T08:53:29.402Z,51.56
2018-09-25T08:54:29.107Z,51.36
2018-09-25T08:55:29.139Z,51.36
2018-09-25T08:56:29.165Z,51.26
2018-09-25T08:57:29.195Z,51.56
2018-09-25T08:58:29.281Z,51.26
2018-09-25T08:59:29.574Z,51.46
2018-09-25T09:00:29.284Z,51.17
2018-09-25T09:01:29.365Z,51.07
2018-09-25T09:02:29.342Z,50.88
2018-09-25T09:03:29.431Z,50.98
2018-09-25T09:04:29.403Z,50.98
2018-09-25T09:05:29.431Z,51.17
2018-09-25T09:06:29.511Z,51.07
2018-09-25T09:07:29.492Z,51.07
2018-09-25T09:08:29.663Z,51.10
2018-09-25T09:09:29.556Z,51.00
2018-09-25T09:10:29.631Z,51.29
2018-09-25T09:11:29.913Z,51.00
2018-09-25T09:12:29.688Z,51.10
2018-09-25T09:13:29.680Z,51.29
2018-09-25T09:14:29.755Z,51.00
2018-09-25T09:15:29.775Z,51.29
2018-09-25T09:16:29.756Z,51.10
2018-09-25T09:17:29.836Z,51.00
2018-09-25T09:18:30.117Z,51.10
2018-09-25T09:19:29.903Z,51.39
2018-09-25T09:20:29.929Z,51.20
2018-09-25T09:21:29.912Z,51.29
2018-09-25T09:22:29.987Z,50.62
2018-09-25T09:23:29.970Z,51.29
2018-09-25T09:24:30.043Z,51.10
2018-09-25T09:25:30.031Z,51.00
2018-09-25T09:26:30.059Z,51.29
2018-09-25T09:27:30.134Z,51.00
2018-09-25T09:28:30.170Z,51.10
2018-09-25T09:29:30.151Z,50.62
2018-09-25T09:30:30.179Z,51.00
2018-09-25T09:31:30.510Z,50.52
2018-09-25T09:32:30.281Z,50.62
2018-09-25T09:33:30.320Z,50.71
2018-09-25T09:34:30.298Z,50.90
2018-09-25T09:35:30.382Z,50.90
2018-09-25T09:36:30.357Z,50.90
2018-09-25T09:37:30.384Z,50.42
2018-09-25T09:38:30.472Z,50.42
2018-09-25T09:39:30.497Z,50.42
2018-09-25T09:41:30.743Z,50.52
2018-09-25T09:42:30.612Z,50.90
2018-09-25T09:43:30.621Z,50.90
2018-09-25T09:44:30.948Z,51.00
2018-09-25T09:45:30.631Z,50.62
2018-09-25T09:46:30.722Z,51.00
2018-09-25T09:47:30.743Z,50.52
2018-09-25T09:48:30.720Z,50.71
2018-09-25T09:49:30.795Z,50.93
2018-09-25T09:50:31.156Z,50.71
2018-09-25T09:51:30.855Z,51.00
2018-09-25T09:52:30.840Z,50.90
2018-09-25T09:53:30.865Z,50.71
2018-09-25T09:54:30.949Z,50.71
2018-09-25T09:55:30.983Z,50.71
2018-09-25T09:56:31.333Z,50.52
2018-09-25T09:57:30.989Z,50.45
2018-09-25T09:58:31.020Z,50.93
2018-09-25T09:59:31.100Z,50.71
2018-09-25T10:00:31.132Z,50.81
2018-09-25T10:01:31.104Z,51.00
2018-09-25T10:02:31.139Z,50.71
2018-09-25T10:03:31.474Z,50.62
2018-09-25T10:04:31.197Z,50.54
2018-09-25T10:05:31.293Z,50.35
2018-09-25T10:06:31.259Z,50.13
2018-09-25T10:07:31.349Z,50.35
2018-09-25T10:08:31.374Z,50.26
2018-09-25T10:09:31.354Z,50.16
2018-09-25T10:10:31.431Z,50.35
2018-09-25T10:11:31.463Z,50.45
2018-09-25T10:12:31.466Z,50.16
2018-09-25T10:13:31.518Z,50.26
2018-09-25T10:14:31.508Z,50.16
2018-09-25T10:15:31.578Z,50.16
2018-09-25T10:16:31.860Z,50.16
2018-09-25T10:17:31.589Z,50.45
2018-09-25T10:18:31.674Z,49.96
2018-09-25T10:19:31.698Z,49.87
2018-09-25T10:20:31.680Z,49.87
2018-09-25T10:21:31.728Z,50.26
2018-09-25T10:22:31.755Z,50.16
2018-09-25T10:23:32.119Z,50.26
2018-09-25T10:24:31.858Z,50.35
2018-09-25T10:25:31.889Z,49.96
2018-09-25T10:26:31.865Z,50.26
2018-09-25T10:27:32.046Z,50.06
2018-09-25T10:28:31.985Z,50.06
2018-09-25T10:29:32.018Z,50.16
2018-09-25T10:30:32.292Z,50.16
2018-09-25T10:31:32.069Z,50.06
2018-09-25T10:32:32.115Z,49.96
2018-09-25T10:33:32.082Z,50.16
2018-09-25T10:34:32.115Z,50.06
2018-09-25T10:35:32.141Z,49.96
2018-09-25T10:36:32.254Z,50.06
2018-09-25T10:37:32.551Z,49.96
2018-09-25T10:38:32.287Z,50.06
2018-09-25T10:39:32.328Z,49.96
2018-09-25T10:40:32.324Z,49.96
2018-09-25T10:41:32.371Z,49.87
2018-09-25T10:43:32.443Z,50.06
2018-09-25T10:44:32.471Z,50.06
2018-09-25T10:45:32.488Z,50.06
2018-09-25T10:46:32.484Z,49.96
2018-09-25T10:47:32.563Z,49.96
2018-09-25T10:48:32.530Z,50.06
2018-09-25T10:49:33.742Z,50.26
2018-09-25T10:51:33.814Z,50.06
2018-09-25T10:52:33.237Z,49.96
2018-09-25T10:53:33.299Z,50.26
2018-09-25T10:54:33.194Z,50.26
2018-09-25T10:55:32.807Z,50.26
2018-09-25T10:56:32.829Z,50.35
2018-09-25T10:57:32.838Z,50.16
2018-09-25T10:58:33.204Z,50.09
2018-09-25T10:59:32.920Z,50.18
2018-09-25T11:01:32.978Z,49.51
2018-09-25T11:02:32.958Z,49.60
2018-09-25T11:04:33.091Z,49.80
2018-09-25T11:05:33.119Z,49.70
2018-09-25T11:07:33.192Z,49.80
2018-09-25T11:08:33.197Z,49.90
2018-09-25T11:09:33.236Z,49.32
2018-09-25T11:10:33.255Z,49.41
2018-09-25T11:11:33.242Z,49.02
2018-09-25T11:12:33.365Z,49.51
2018-09-25T11:13:33.386Z,49.41
2018-09-25T11:15:33.457Z,49.60
2018-09-25T11:16:33.469Z,49.60
2018-09-25T11:17:33.444Z,48.83
2018-09-25T11:18:33.523Z,49.12
2018-09-25T11:19:33.574Z,49.02
2018-09-25T11:20:33.574Z,48.83
2018-09-25T11:21:33.604Z,48.83
2018-09-25T11:22:33.640Z,48.83
2018-09-25T11:23:33.909Z,48.64
2018-09-25T11:24:33.708Z,48.93
2018-09-25T11:25:33.851Z,48.74
2018-09-25T11:26:33.757Z,48.74
2018-09-25T11:27:33.796Z,48.44
2018-09-25T11:28:33.813Z,48.44
2018-09-25T11:29:33.830Z,48.54
2018-09-25T11:30:34.185Z,48.64
2018-09-25T11:31:33.912Z,48.74
2018-09-25T11:32:33.967Z,48.54
2018-09-25T11:33:33.932Z,48.64
2018-09-25T11:34:34.004Z,48.54
2018-09-25T11:35:34.072Z,48.64
2018-09-25T11:36:34.064Z,48.66
2018-09-25T11:37:34.099Z,48.54
2018-09-25T11:38:34.128Z,48.74
2018-09-25T11:39:34.167Z,48.44
2018-09-25T11:40:34.172Z,48.64
2018-09-25T11:41:34.346Z,48.64
2018-09-25T11:42:34.273Z,48.76
2018-09-25T11:43:34.582Z,48.57
2018-09-25T11:44:34.300Z,48.74
2018-09-25T11:45:34.724Z,48.47
2018-09-25T11:47:34.402Z,48.54
2018-09-25T11:48:34.463Z,48.54
2018-09-25T11:49:34.401Z,48.57
2018-09-25T11:50:34.845Z,48.66
2018-09-25T11:51:34.531Z,48.66
2018-09-25T11:52:34.564Z,48.86
2018-09-25T11:53:34.529Z,48.57
2018-09-25T11:54:34.625Z,48.74
2018-09-25T11:55:34.674Z,48.74
2018-09-25T11:56:34.679Z,48.83
2018-09-25T11:57:35.035Z,48.66
2018-09-25T11:58:34.822Z,48.47
2018-09-25T11:59:34.868Z,48.54
2018-09-25T12:01:34.828Z,48.57
2018-09-25T12:02:34.820Z,48.57
2018-09-25T12:03:34.911Z,48.66
2018-09-25T12:04:36.158Z,48.74
2018-09-25T12:05:34.968Z,48.66
2018-09-25T12:06:34.989Z,48.57
2018-09-25T12:07:35.010Z,48.57
2018-09-25T12:08:35.207Z,48.66
2018-09-25T12:09:35.086Z,48.76
2018-09-25T12:10:35.056Z,48.57
2018-09-25T12:11:35.450Z,48.66
2018-09-25T12:12:35.165Z,48.86
2018-09-25T12:13:35.228Z,48.57
2018-09-25T12:14:35.256Z,48.08
2018-09-25T12:15:35.283Z,48.37
2018-09-25T12:16:35.295Z,48.57
2018-09-25T12:17:35.341Z,48.57
2018-09-25T12:18:35.654Z,48.37
2018-09-25T12:19:35.398Z,48.47
2018-09-25T12:20:35.407Z,48.37
2018-09-25T12:21:35.441Z,48.28
2018-09-25T12:22:35.489Z,48.47
2018-09-25T12:23:35.587Z,48.37
2018-09-25T12:24:35.495Z,48.37
2018-09-25T12:25:35.602Z,48.47
2018-09-25T12:26:35.608Z,48.37
2018-09-25T12:27:35.655Z,48.37
2018-09-25T12:28:35.625Z,48.57
2018-09-25T12:29:35.710Z,48.47
2018-09-25T12:30:35.747Z,48.76
2018-09-25T12:31:35.751Z,48.76
2018-09-25T12:32:35.822Z,48.18
2018-09-25T12:33:35.830Z,48.18
2018-09-25T12:34:35.863Z,48.08
2018-09-25T12:35:35.903Z,48.08
2018-09-25T12:36:35.923Z,47.99
2018-09-25T12:37:35.936Z,47.99
2018-09-25T12:39:36.015Z,48.08
2018-09-25T12:41:36.075Z,47.89
2018-09-25T12:42:36.171Z,47.89
2018-09-25T12:43:36.134Z,47.50
2018-09-25T12:44:36.187Z,48.08
2018-09-25T12:45:36.208Z,47.99
2018-09-25T12:46:36.233Z,47.70
2018-09-25T12:47:36.251Z,47.50
2018-09-25T12:48:36.294Z,47.60
2018-09-25T12:49:36.612Z,47.80
2018-09-25T12:50:36.363Z,47.60
2018-09-25T12:51:36.449Z,47.70
2018-09-25T12:52:36.490Z,47.80
2018-09-25T12:53:36.443Z,47.70
2018-09-25T12:54:36.480Z,47.80
2018-09-25T12:55:36.484Z,47.70
2018-09-25T12:56:36.839Z,47.80
2018-09-25T12:57:36.543Z,47.80
2018-09-25T12:58:36.598Z,47.60
2018-09-25T12:59:36.648Z,47.70
2018-09-25T13:00:36.665Z,47.70
2018-09-25T13:01:36.653Z,47.70
2018-09-25T13:02:36.755Z,47.70
2018-09-25T13:03:36.774Z,47.60
2018-09-25T13:04:36.744Z,47.80
2018-09-25T13:05:36.818Z,47.89
2018-09-25T13:06:36.800Z,47.89
2018-09-25T13:07:37.000Z,48.08
2018-09-25T13:08:36.965Z,48.08
2018-09-25T13:09:37.266Z,47.80
2018-09-25T13:10:36.989Z,47.60